Time;durP1;ratioP1;P1;durP2;ratioP2;P2;SDS_P1;SDS_P2;PMS_P1;PMS_P2;Temp;Humidity;BMP_temperature;BMP_pressure;BME280_temperature;BME280_humidity;BME280_pressure;Samples;Min_cycle;Max_cycle;Signal;HPM_P1;HPM_P2
2024/04/22 00:00:18;;;;;;;2.60;2.40;;;1.90;99.90;;;;;;2228900;26;20242;-70
2024/04/22 00:01:19;;;;;;;3.13;2.63;;;2.00;99.90;;;;;;2235108;26;20813;-71
2024/04/22 00:02:19;;;;;;;2.45;2.25;;;2.00;99.90;;;;;;2236481;26;20617;-70
2024/04/22 00:03:20;;;;;;;4.23;2.80;;;2.00;99.90;;;;;;2222258;26;20284;-71
2024/04/22 00:04:21;;;;;;;3.10;2.57;;;2.00;99.90;;;;;;2237090;26;20719;-70
2024/04/22 00:05:22;;;;;;;2.30;2.10;;;2.00;99.90;;;;;;2243938;26;20331;-70
2024/04/22 00:06:22;;;;;;;2.47;2.27;;;2.00;99.90;;;;;;2230347;26;21205;-70
2024/04/22 00:07:23;;;;;;;2.40;2.13;;;2.00;99.90;;;;;;2215364;26;20295;-70
2024/04/22 00:08:24;;;;;;;2.50;2.30;;;2.00;99.90;;;;;;2235919;26;20382;-70
2024/04/22 00:09:24;;;;;;;2.60;2.40;;;2.10;99.90;;;;;;2242263;26;20268;-70
2024/04/22 00:10:25;;;;;;;2.83;2.30;;;2.10;99.90;;;;;;2244494;26;20262;-71
2024/04/22 00:11:26;;;;;;;3.40;2.63;;;2.10;99.90;;;;;;2229784;26;20272;-70
2024/04/22 00:12:26;;;;;;;3.00;2.70;;;2.10;99.90;;;;;;2221365;26;20298;-71
2024/04/22 00:13:27;;;;;;;2.50;2.30;;;2.20;99.90;;;;;;2221842;26;20272;-70
2024/04/22 00:14:28;;;;;;;3.03;2.73;;;2.00;99.90;;;;;;2229971;26;20850;-70
2024/04/22 00:15:28;;;;;;;2.83;2.40;;;2.00;99.90;;;;;;2229964;26;20315;-70
2024/04/22 00:16:29;;;;;;;2.50;2.30;;;2.10;99.90;;;;;;2230219;26;20623;-70
2024/04/22 00:17:30;;;;;;;3.13;2.60;;;2.00;99.90;;;;;;2243610;26;20266;-70
2024/04/22 00:18:30;;;;;;;2.63;2.30;;;2.00;99.90;;;;;;2245781;26;20652;-70
2024/04/22 00:19:31;;;;;;;2.77;2.40;;;2.00;99.90;;;;;;2244720;26;20271;-70
2024/04/22 00:20:32;;;;;;;4.20;2.70;;;2.00;99.90;;;;;;2231232;26;20734;-70
2024/04/22 00:21:32;;;;;;;3.30;2.57;;;2.00;99.90;;;;;;2221811;26;20380;-70
2024/04/22 00:22:33;;;;;;;2.63;2.30;;;2.00;99.90;;;;;;2220289;26;20290;-70
2024/04/22 00:23:34;;;;;;;2.97;2.67;;;2.00;99.90;;;;;;2230159;26;20322;-70
2024/04/22 00:24:34;;;;;;;2.93;2.50;;;2.10;99.90;;;;;;2236596;26;20746;-70
2024/04/22 00:25:35;;;;;;;2.93;2.50;;;2.10;99.90;;;;;;2236552;26;20263;-70
2024/04/22 00:26:36;;;;;;;3.23;2.30;;;2.10;99.90;;;;;;2230425;26;20262;-70
2024/04/22 00:27:36;;;;;;;2.37;2.17;;;2.10;99.90;;;;;;2218615;26;20262;-70
2024/04/22 00:28:37;;;;;;;2.83;2.50;;;2.00;99.90;;;;;;2236934;26;20263;-70
2024/04/22 00:29:38;;;;;;;3.38;2.90;;;2.10;99.90;;;;;;2228853;26;20302;-71
2024/04/22 00:30:39;;;;;;;3.80;2.60;;;2.10;99.90;;;;;;2236612;26;20756;-71
2024/04/22 00:31:39;;;;;;;2.50;2.20;;;2.10;99.90;;;;;;2251208;26;20258;-70
2024/04/22 00:32:40;;;;;;;3.20;2.80;;;2.00;99.90;;;;;;2236613;26;20267;-70
2024/04/22 00:33:41;;;;;;;3.80;3.40;;;2.10;99.90;;;;;;2236560;26;20736;-70
2024/04/22 00:34:42;;;;;;;2.87;2.60;;;2.10;99.90;;;;;;2221799;26;20302;-70
2024/04/22 00:36:02;;;;;;;2.83;2.40;;;2.20;99.90;;;;;;2236502;26;20288;-71
2024/04/22 00:37:03;;;;;;;2.85;2.25;;;2.10;99.90;;;;;;2244340;26;20280;-70
2024/04/22 00:38:04;;;;;;;2.67;2.40;;;2.00;99.90;;;;;;2236536;26;20238;-70
2024/04/22 00:39:05;;;;;;;2.92;2.65;;;1.90;99.90;;;;;;2236033;26;20236;-70
2024/04/22 00:40:06;;;;;;;3.03;2.50;;;2.00;99.90;;;;;;2236487;26;20232;-70
2024/04/22 00:41:07;;;;;;;2.25;2.05;;;2.00;99.90;;;;;;2221436;26;20390;-70
2024/04/22 00:42:07;;;;;;;3.07;2.60;;;2.00;99.90;;;;;;2217393;26;20286;-72
2024/04/22 00:43:08;;;;;;;2.53;2.33;;;2.00;99.90;;;;;;2245316;26;20230;-69
2024/04/22 00:44:09;;;;;;;3.13;2.83;;;2.00;99.90;;;;;;2250951;26;20280;-69
2024/04/22 00:45:10;;;;;;;2.67;2.40;;;2.00;99.90;;;;;;2236664;26;20267;-69
2024/04/22 00:46:11;;;;;;;2.85;2.63;;;2.00;99.90;;;;;;2237404;26;20245;-69
2024/04/22 00:47:12;;;;;;;4.07;3.33;;;1.90;99.90;;;;;;2236044;26;20346;-69
2024/04/22 00:48:16;;;;;;;3.90;3.40;;;2.00;99.90;;;;;;2251047;26;20276;-72
2024/04/22 00:49:17;;;;;;;4.28;2.97;;;2.10;99.90;;;;;;2250185;26;20235;-69
2024/04/22 00:50:18;;;;;;;3.53;3.10;;;2.10;99.90;;;;;;2235635;26;20267;-68
2024/04/22 00:51:21;;;;;;;3.70;3.15;;;2.10;99.90;;;;;;2236999;26;20735;-70
2024/04/22 00:52:22;;;;;;;2.90;2.60;;;2.10;99.90;;;;;;2231905;26;20332;-70
2024/04/22 00:53:24;;;;;;;3.83;3.33;;;2.10;99.90;;;;;;2236175;26;20663;-70
2024/04/22 00:54:25;;;;;;;4.30;3.40;;;2.20;99.90;;;;;;2238815;26;21042;-70
2024/04/22 00:55:26;;;;;;;3.50;3.10;;;2.10;99.90;;;;;;2226245;26;20346;-69
2024/04/22 00:56:28;;;;;;;3.38;3.08;;;2.20;99.90;;;;;;2221943;26;20662;-69
2024/04/22 00:57:30;;;;;;;3.35;2.83;;;2.20;99.90;;;;;;2216171;26;20272;-69
2024/04/22 00:58:31;;;;;;;3.08;2.70;;;2.20;99.90;;;;;;2215474;26;20369;-69
2024/04/22 00:59:32;;;;;;;3.15;2.85;;;2.30;99.90;;;;;;2229375;26;20267;-69
2024/04/22 01:00:35;;;;;;;3.83;3.10;;;2.30;99.90;;;;;;2229708;26;20327;-70
2024/04/22 01:01:37;;;;;;;3.30;3.00;;;2.30;99.90;;;;;;2227791;26;21126;-69
2024/04/22 01:02:37;;;;;;;3.30;2.65;;;2.30;99.90;;;;;;2223080;26;20753;-69
2024/04/22 01:03:39;;;;;;;3.67;3.27;;;2.20;99.90;;;;;;2239575;26;20330;-70
2024/04/22 01:04:42;;;;;;;3.63;3.33;;;2.30;99.90;;;;;;2250807;26;20268;-69
2024/04/22 01:05:43;;;;;;;3.60;3.10;;;2.30;99.90;;;;;;2249970;26;20266;-70
2024/04/22 01:06:44;;;;;;;4.43;3.60;;;2.30;99.90;;;;;;2235379;26;20270;-70
2024/04/22 01:07:45;;;;;;;3.50;3.20;;;2.30;99.90;;;;;;2217289;26;20275;-69
2024/04/22 01:08:46;;;;;;;4.07;3.55;;;2.30;99.90;;;;;;2217654;26;20269;-69
2024/04/22 01:09:46;;;;;;;3.20;2.90;;;2.40;99.90;;;;;;2234541;26;20709;-70
2024/04/22 01:10:47;;;;;;;3.73;3.27;;;2.40;99.90;;;;;;2249677;26;20264;-69
2024/04/22 01:11:48;;;;;;;4.72;3.72;;;2.40;99.90;;;;;;2249841;26;20261;-70
2024/04/22 01:12:49;;;;;;;4.23;3.57;;;2.40;99.90;;;;;;2249839;26;20276;-70
2024/04/22 01:13:50;;;;;;;4.88;3.40;;;2.30;99.90;;;;;;2234672;26;20375;-69
2024/04/22 01:14:50;;;;;;;3.97;3.30;;;2.30;99.90;;;;;;2229436;26;20312;-70
2024/04/22 01:15:51;;;;;;;3.93;3.53;;;2.30;99.90;;;;;;2248979;26;20310;-70
2024/04/22 01:16:55;;;;;;;3.37;2.80;;;2.30;99.90;;;;;;2249600;26;20946;-70
2024/04/22 01:17:56;;;;;;;3.30;3.00;;;2.30;99.90;;;;;;2263154;26;20262;-69
2024/04/22 01:18:56;;;;;;;3.97;3.47;;;2.30;99.90;;;;;;2231259;26;20270;-70
2024/04/22 01:19:57;;;;;;;5.83;3.70;;;2.20;99.90;;;;;;2220423;26;20752;-69
2024/04/22 01:20:58;;;;;;;4.07;3.40;;;2.30;99.90;;;;;;2218894;26;20281;-69
2024/04/22 01:21:58;;;;;;;4.20;3.50;;;2.30;99.90;;;;;;2214231;26;20305;-69
2024/04/22 01:22:59;;;;;;;3.77;3.30;;;2.30;99.90;;;;;;2235757;26;20340;-69
2024/04/22 01:24:00;;;;;;;4.13;3.53;;;2.40;99.90;;;;;;2220566;26;20273;-70
2024/04/22 01:25:03;;;;;;;4.88;4.18;;;2.40;99.90;;;;;;2219453;26;20257;-70
2024/04/22 01:26:07;;;;;;;3.20;2.60;;;2.50;99.90;;;;;;2215541;26;20287;-70
2024/04/22 01:27:08;;;;;;;5.18;3.70;;;2.40;99.90;;;;;;2234516;26;20766;-70
2024/04/22 01:28:09;;;;;;;3.85;3.40;;;2.40;99.90;;;;;;2230142;26;20625;-69
2024/04/22 01:29:10;;;;;;;3.83;3.40;;;2.40;99.90;;;;;;2233871;26;20278;-70
2024/04/22 01:30:12;;;;;;;4.50;3.97;;;2.40;99.90;;;;;;2229684;26;20776;-69
2024/04/22 01:31:12;;;;;;;3.47;3.10;;;2.40;99.90;;;;;;2221079;26;20708;-69
2024/04/22 01:32:13;;;;;;;4.07;3.40;;;2.30;99.90;;;;;;2226153;26;20234;-70
2024/04/22 01:33:14;;;;;;;4.80;3.67;;;2.40;99.90;;;;;;2246098;26;20291;-69
2024/04/22 01:34:14;;;;;;;4.17;3.40;;;2.30;99.90;;;;;;2223800;26;20276;-70
2024/04/22 01:35:15;;;;;;;4.53;3.67;;;2.30;99.90;;;;;;2226895;26;20315;-70
2024/04/22 01:36:16;;;;;;;5.00;3.80;;;2.30;99.90;;;;;;2223736;26;20871;-70
2024/04/22 01:37:16;;;;;;;5.13;3.87;;;2.30;99.90;;;;;;2207217;26;20251;-69
2024/04/22 01:38:17;;;;;;;4.37;3.70;;;2.30;99.90;;;;;;2231614;26;20695;-70
2024/04/22 01:39:17;;;;;;;5.00;3.63;;;2.30;99.90;;;;;;2230932;26;20280;-69
2024/04/22 01:40:18;;;;;;;4.73;3.50;;;2.30;99.90;;;;;;2232655;26;20281;-69
2024/04/22 01:41:19;;;;;;;4.50;3.60;;;2.30;99.90;;;;;;2220606;26;20249;-70
2024/04/22 01:42:20;;;;;;;4.17;3.40;;;2.30;99.90;;;;;;2232662;26;20507;-69
2024/04/22 01:43:20;;;;;;;4.00;3.60;;;2.30;99.90;;;;;;2236356;26;20253;-69
2024/04/22 01:44:21;;;;;;;3.83;3.27;;;2.30;99.90;;;;;;2220258;26;20292;-69
2024/04/22 01:45:22;;;;;;;4.23;3.47;;;2.30;99.90;;;;;;2234577;26;20368;-70
2024/04/22 01:46:22;;;;;;;3.93;3.30;;;2.30;99.90;;;;;;2219950;26;20274;-70
2024/04/22 01:47:23;;;;;;;4.13;3.43;;;2.20;99.90;;;;;;2219685;26;20350;-70
2024/04/22 01:48:24;;;;;;;4.23;3.50;;;2.20;99.90;;;;;;2215317;26;20381;-69
2024/04/22 01:49:24;;;;;;;3.47;2.93;;;2.20;99.90;;;;;;2234134;26;21082;-69
2024/04/22 01:50:25;;;;;;;4.23;3.80;;;2.20;99.90;;;;;;2234800;26;20267;-70
2024/04/22 01:51:26;;;;;;;3.80;3.20;;;2.20;99.90;;;;;;2235761;26;20284;-69
2024/04/22 01:52:27;;;;;;;3.77;3.27;;;2.20;99.90;;;;;;2235343;26;20261;-69
2024/04/22 01:53:27;;;;;;;4.68;3.50;;;2.20;99.90;;;;;;2221026;26;20284;-69
2024/04/22 01:54:28;;;;;;;4.10;3.67;;;2.20;99.90;;;;;;2213086;26;20280;-69
2024/04/22 01:55:29;;;;;;;3.67;2.90;;;2.10;99.90;;;;;;2213376;26;20315;-69
2024/04/22 01:56:30;;;;;;;3.47;3.00;;;2.10;99.90;;;;;;2232293;26;20269;-70
2024/04/22 01:57:31;;;;;;;3.30;2.70;;;2.10;99.90;;;;;;2235914;26;20309;-70
2024/04/22 01:58:32;;;;;;;3.40;3.00;;;2.10;99.90;;;;;;2235539;26;20266;-69
2024/04/22 01:59:32;;;;;;;2.60;2.40;;;2.00;99.90;;;;;;2235278;26;20354;-69
2024/04/22 02:00:33;;;;;;;3.30;3.00;;;2.10;99.90;;;;;;2216226;26;20308;-70
2024/04/22 02:01:34;;;;;;;3.30;2.70;;;2.00;99.90;;;;;;2220004;26;20285;-69
2024/04/22 02:02:37;;;;;;;4.03;2.83;;;2.10;99.90;;;;;;2247350;26;20270;-69
2024/04/22 02:03:38;;;;;;;3.00;2.50;;;2.00;99.90;;;;;;2249850;26;20336;-69
2024/04/22 02:04:39;;;;;;;2.67;2.30;;;2.00;99.90;;;;;;2228388;26;20262;-69
2024/04/22 02:05:41;;;;;;;3.70;2.90;;;2.00;99.90;;;;;;2248808;26;20279;-69
2024/04/22 02:06:41;;;;;;;3.22;2.78;;;2.00;99.90;;;;;;2249479;26;20264;-70
2024/04/22 02:07:42;;;;;;;3.67;2.93;;;1.90;99.90;;;;;;2249650;26;20318;-69
2024/04/22 02:08:43;;;;;;;3.80;3.20;;;1.90;99.90;;;;;;2252390;26;21281;-69
2024/04/22 02:09:43;;;;;;;3.00;2.70;;;1.90;99.90;;;;;;2249386;26;20372;-70
2024/04/22 02:10:44;;;;;;;3.47;2.90;;;1.90;99.90;;;;;;2234574;26;20266;-69
2024/04/22 02:11:45;;;;;;;4.40;3.50;;;1.90;99.90;;;;;;2249542;26;20262;-69
2024/04/22 02:12:46;;;;;;;6.53;4.20;;;1.90;99.90;;;;;;2249145;26;20260;-69
2024/04/22 02:13:46;;;;;;;3.95;3.55;;;1.80;99.90;;;;;;2234525;26;20263;-69
2024/04/22 02:14:47;;;;;;;5.10;3.70;;;1.80;99.90;;;;;;2234944;26;20356;-69
2024/04/22 02:15:48;;;;;;;4.93;4.10;;;1.70;99.90;;;;;;2238270;26;20337;-70
2024/04/22 02:16:48;;;;;;;4.33;3.83;;;1.70;99.90;;;;;;2215397;26;20269;-69
2024/04/22 02:17:50;;;;;;;4.67;4.03;;;1.70;99.90;;;;;;2219755;26;20270;-69
2024/04/22 02:18:55;;;;;;;5.45;4.28;;;1.70;99.90;;;;;;2230882;26;20629;-69
2024/04/22 02:19:55;;;;;;;6.65;4.50;;;1.70;99.90;;;;;;2242302;26;20644;-70
2024/04/22 02:20:56;;;;;;;4.97;4.47;;;1.70;99.90;;;;;;2248313;26;20281;-70
2024/04/22 02:21:57;;;;;;;6.83;4.87;;;1.70;99.90;;;;;;2234268;26;20266;-70
2024/04/22 02:22:58;;;;;;;5.63;4.70;;;1.60;99.90;;;;;;2231157;26;20269;-71
2024/04/22 02:23:58;;;;;;;5.37;4.07;;;1.60;99.90;;;;;;2234204;26;20782;-70
2024/04/22 02:24:59;;;;;;;5.93;5.03;;;1.50;99.90;;;;;;2209775;26;20273;-71
2024/04/22 02:26:00;;;;;;;5.33;4.47;;;1.60;99.90;;;;;;2222318;26;20272;-70
2024/04/22 02:27:00;;;;;;;5.07;4.27;;;1.70;99.90;;;;;;2231231;26;20339;-71
2024/04/22 02:28:01;;;;;;;5.37;4.47;;;1.70;99.90;;;;;;2230377;26;20292;-70
2024/04/22 02:29:02;;;;;;;5.47;4.57;;;1.80;99.90;;;;;;2219135;26;20703;-71
2024/04/22 02:30:03;;;;;;;5.50;4.47;;;1.80;99.90;;;;;;2204575;26;20276;-70
2024/04/22 02:31:03;;;;;;;5.27;4.17;;;1.80;99.90;;;;;;2218421;26;20850;-70
2024/04/22 02:32:05;;;;;;;4.50;4.00;;;1.90;99.90;;;;;;2220996;26;20463;-69
2024/04/22 02:33:08;;;;;;;7.50;4.85;;;1.90;99.90;;;;;;2197740;26;20296;-71
2024/04/22 02:34:09;;;;;;;4.78;4.03;;;2.00;99.90;;;;;;2204836;26;20817;-70
2024/04/22 02:35:10;;;;;;;6.53;4.77;;;2.10;99.90;;;;;;2220341;26;20282;-69
2024/04/22 02:36:10;;;;;;;6.53;5.03;;;2.10;99.90;;;;;;2226724;26;20279;-70
2024/04/22 02:37:11;;;;;;;5.70;4.47;;;2.10;99.90;;;;;;2240786;26;20955;-69
2024/04/22 02:38:12;;;;;;;4.93;4.30;;;2.00;99.90;;;;;;2242647;26;20230;-71
2024/04/22 02:39:13;;;;;;;7.47;5.57;;;2.00;99.90;;;;;;2241870;26;20285;-69
2024/04/22 02:40:14;;;;;;;6.13;4.50;;;1.90;99.90;;;;;;2233216;26;20713;-70
2024/04/22 02:41:14;;;;;;;6.33;5.33;;;1.80;99.90;;;;;;2236201;26;20237;-70
2024/04/22 02:42:15;;;;;;;5.93;4.90;;;1.80;99.90;;;;;;2228605;26;20672;-69
2024/04/22 02:43:16;;;;;;;8.30;5.90;;;1.80;99.90;;;;;;2244004;26;20232;-70
2024/04/22 02:44:16;;;;;;;7.10;4.77;;;1.80;99.90;;;;;;2243968;26;20779;-70
2024/04/22 02:45:17;;;;;;;8.47;5.73;;;1.80;99.90;;;;;;2243402;26;20236;-70
2024/04/22 02:46:18;;;;;;;8.27;5.77;;;1.80;99.90;;;;;;2232251;26;20246;-70
2024/04/22 02:47:18;;;;;;;7.23;5.40;;;1.80;99.90;;;;;;2230036;26;20241;-70
2024/04/22 02:48:19;;;;;;;6.77;4.20;;;1.80;99.90;;;;;;2221989;26;20330;-69
2024/04/22 02:49:20;;;;;;;6.90;5.40;;;1.70;99.90;;;;;;2219602;26;20586;-70
2024/04/22 02:50:20;;;;;;;5.57;4.57;;;1.60;99.90;;;;;;2218764;26;20266;-70
2024/04/22 02:51:21;;;;;;;5.20;4.67;;;1.60;99.90;;;;;;2245656;26;20323;-69
2024/04/22 02:52:22;;;;;;;4.70;4.20;;;1.60;99.90;;;;;;2218403;26;20292;-69
2024/04/22 02:53:22;;;;;;;6.13;5.13;;;1.60;99.90;;;;;;2221906;26;20300;-70
2024/04/22 02:54:28;;;;;;;5.80;4.60;;;1.60;99.90;;;;;;2215126;26;20272;-70
2024/04/22 02:55:29;;;;;;;5.43;4.57;;;1.80;99.90;;;;;;2222695;26;20270;-70
2024/04/22 02:56:30;;;;;;;5.18;4.07;;;1.70;99.90;;;;;;2230521;26;20355;-70
2024/04/22 02:57:31;;;;;;;5.03;4.53;;;1.70;99.90;;;;;;2243550;26;20367;-70
2024/04/22 02:58:32;;;;;;;4.90;4.10;;;1.70;99.90;;;;;;2222393;26;20309;-70
2024/04/22 02:59:32;;;;;;;4.90;4.37;;;1.80;99.90;;;;;;2220889;26;20356;-69
2024/04/22 03:00:33;;;;;;;5.40;4.90;;;1.80;99.90;;;;;;2230717;26;20387;-70
2024/04/22 03:01:36;;;;;;;7.93;5.90;;;1.70;99.90;;;;;;2236233;26;20326;-69
2024/04/22 03:02:37;;;;;;;11.05;6.72;;;1.70;99.90;;;;;;2215932;26;20272;-70
2024/04/22 03:03:38;;;;;;;12.60;7.60;;;1.60;99.90;;;;;;2215502;26;20273;-70
2024/04/22 03:04:38;;;;;;;11.00;7.47;;;1.50;99.90;;;;;;2228668;26;20372;-70
2024/04/22 03:05:39;;;;;;;8.03;5.80;;;1.40;99.90;;;;;;2229221;26;20609;-70
2024/04/22 03:06:40;;;;;;;10.17;6.30;;;1.40;99.90;;;;;;2221064;26;20281;-70
2024/04/22 03:07:40;;;;;;;9.43;6.73;;;1.40;99.90;;;;;;2235858;26;20275;-70
2024/04/22 03:08:42;;;;;;;8.87;6.87;;;1.40;99.90;;;;;;2229783;26;20371;-70
2024/04/22 03:09:44;;;;;;;15.50;8.48;;;1.40;99.90;;;;;;2214344;26;20355;-70
2024/04/22 03:10:44;;;;;;;11.77;8.13;;;1.40;99.90;;;;;;2220752;26;20275;-70
2024/04/22 03:11:46;;;;;;;10.83;6.50;;;1.40;99.90;;;;;;2207727;26;20269;-69
2024/04/22 03:12:48;;;;;;;10.40;7.35;;;1.40;99.90;;;;;;2200716;26;20269;-70
2024/04/22 03:13:48;;;;;;;10.23;7.80;;;1.50;99.90;;;;;;2236661;26;20277;-70
2024/04/22 03:14:49;;;;;;;15.33;8.60;;;1.60;99.90;;;;;;2262440;26;20326;-70
2024/04/22 03:15:50;;;;;;;58.13;12.90;;;1.50;99.90;;;;;;2232201;26;20275;-70
2024/04/22 03:16:50;;;;;;;45.53;12.70;;;1.40;99.90;;;;;;2229364;26;20339;-71
2024/04/22 03:17:52;;;;;;;48.90;11.97;;;1.40;99.90;;;;;;2207377;26;20648;-71
2024/04/22 03:18:53;;;;;;;19.40;9.35;;;1.30;99.90;;;;;;2234273;26;20278;-71
2024/04/22 03:19:53;;;;;;;22.43;10.93;;;1.20;99.90;;;;;;2251172;26;20310;-70
2024/04/22 03:20:54;;;;;;;80.70;16.50;;;1.10;99.90;;;;;;2251072;26;20269;-70
2024/04/22 03:21:55;;;;;;;13.80;8.93;;;1.10;99.90;;;;;;2250933;26;20264;-70
2024/04/22 03:22:55;;;;;;;15.50;9.90;;;1.20;99.90;;;;;;2235210;26;20312;-70
2024/04/22 03:23:56;;;;;;;16.33;9.43;;;1.20;99.90;;;;;;2236186;26;20316;-70
2024/04/22 03:24:57;;;;;;;12.10;8.10;;;1.20;99.90;;;;;;2249368;26;20267;-70
2024/04/22 03:25:58;;;;;;;16.70;9.60;;;1.30;99.90;;;;;;2242741;26;20749;-70
2024/04/22 03:26:59;;;;;;;14.77;7.97;;;1.30;99.90;;;;;;2204951;26;20318;-70
2024/04/22 03:28:00;;;;;;;40.17;10.87;;;1.20;99.90;;;;;;2235474;26;20369;-70
2024/04/22 03:29:00;;;;;;;20.53;9.47;;;1.20;99.90;;;;;;2241131;26;20260;-70
2024/04/22 03:30:01;;;;;;;14.40;9.27;;;1.20;99.90;;;;;;2249912;26;20297;-69
2024/04/22 03:31:02;;;;;;;18.83;10.73;;;1.30;99.90;;;;;;2220505;26;20268;-69
2024/04/22 03:32:03;;;;;;;13.60;8.80;;;1.20;99.90;;;;;;2232154;26;20236;-71
2024/04/22 03:33:04;;;;;;;16.15;9.55;;;1.20;99.90;;;;;;2250475;26;20731;-70
2024/04/22 03:34:04;;;;;;;18.20;10.00;;;1.20;99.90;;;;;;2250398;26;20232;-70
2024/04/22 03:35:06;;;;;;;16.80;9.53;;;1.20;99.90;;;;;;2250122;26;20505;-70
2024/04/22 03:36:07;;;;;;;14.15;8.68;;;1.20;99.90;;;;;;2250426;26;20231;-69
2024/04/22 03:37:08;;;;;;;24.98;9.75;;;1.20;99.90;;;;;;2236008;26;20284;-70
2024/04/22 03:38:09;;;;;;;16.00;9.93;;;1.20;99.90;;;;;;2250269;26;20278;-70
2024/04/22 03:39:09;;;;;;;14.40;8.97;;;1.20;99.90;;;;;;2244670;26;20282;-69
2024/04/22 03:40:10;;;;;;;14.33;9.33;;;1.10;99.90;;;;;;2229529;26;20244;-70
2024/04/22 03:41:11;;;;;;;12.50;9.33;;;1.20;99.90;;;;;;2248574;26;20722;-70
2024/04/22 03:42:11;;;;;;;15.97;9.10;;;1.20;99.90;;;;;;2250788;26;20232;-70
2024/04/22 03:43:12;;;;;;;31.23;11.13;;;1.20;99.90;;;;;;2251789;26;20619;-70
2024/04/22 03:44:13;;;;;;;41.30;13.87;;;1.10;99.90;;;;;;2250343;26;20240;-69
2024/04/22 03:45:14;;;;;;;67.33;14.90;;;1.10;99.90;;;;;;2251034;26;20285;-70
2024/04/22 03:50:12;;;;;;;21.05;10.77;;;1.20;99.90;;;;;;2235924;26;20246;-70
2024/04/22 03:51:13;;;;;;;20.27;11.77;;;1.10;99.90;;;;;;2250476;26;20233;-70
2024/04/22 03:52:14;;;;;;;62.27;16.80;;;1.10;99.90;;;;;;2249632;26;20338;-70
2024/04/22 03:53:16;;;;;;;22.43;12.37;;;1.10;99.90;;;;;;2235604;26;20768;-69
2024/04/22 03:54:17;;;;;;;22.35;10.60;;;1.20;99.90;;;;;;2235736;26;20235;-70
2024/04/22 03:55:18;;;;;;;25.07;15.47;;;1.20;99.90;;;;;;2221648;26;20756;-70
2024/04/22 03:56:18;;;;;;;14.80;10.07;;;1.20;99.90;;;;;;2219907;26;20318;-70
2024/04/22 03:57:19;;;;;;;20.97;10.67;;;1.20;99.90;;;;;;2244094;26;20230;-70
2024/04/22 03:58:20;;;;;;;15.97;9.90;;;1.30;99.90;;;;;;2250515;26;20761;-70
2024/04/22 03:59:21;;;;;;;14.00;10.03;;;1.30;99.90;;;;;;2250406;26;20347;-70
2024/04/22 04:00:24;;;;;;;21.40;17.57;;;1.40;99.90;;;;;;2250047;26;20332;-69
2024/04/22 04:01:24;;;;;;;16.63;11.77;;;1.40;99.90;;;;;;2221051;26;20364;-70
2024/04/22 04:02:26;;;;;;;21.13;11.13;;;1.30;99.90;;;;;;2234582;26;20282;-69
2024/04/22 04:03:27;;;;;;;22.80;13.68;;;1.30;99.90;;;;;;2250995;26;20296;-70
2024/04/22 04:04:28;;;;;;;25.03;15.87;;;1.30;99.90;;;;;;2243317;26;20345;-70
2024/04/22 04:05:28;;;;;;;81.90;21.37;;;1.30;99.90;;;;;;2221111;26;20308;-70
2024/04/22 04:06:29;;;;;;;21.43;13.40;;;1.30;99.90;;;;;;2236125;26;20265;-69
2024/04/22 04:07:30;;;;;;;62.80;35.40;;;1.20;99.90;;;;;;2235172;26;20320;-70
2024/04/22 04:08:30;;;;;;;20.53;14.47;;;1.20;99.90;;;;;;2235325;26;20273;-70
2024/04/22 04:09:31;;;;;;;16.00;10.43;;;1.10;99.90;;;;;;2247578;26;20334;-70
2024/04/22 04:10:32;;;;;;;15.60;10.00;;;1.10;99.90;;;;;;2251318;26;20345;-70
2024/04/22 04:11:39;;;;;;;16.83;11.40;;;1.10;99.90;;;;;;2252571;26;20736;-70
2024/04/22 04:12:40;;;;;;;15.32;9.65;;;1.10;99.90;;;;;;2249575;26;20336;-70
2024/04/22 04:13:44;;;;;;;17.77;11.30;;;1.20;99.90;;;;;;2222975;26;20303;-70
2024/04/22 04:14:44;;;;;;;14.23;10.65;;;1.20;99.90;;;;;;2219870;26;20265;-70
2024/04/22 04:15:45;;;;;;;14.93;10.07;;;1.30;99.90;;;;;;2235407;26;20782;-70
2024/04/22 04:16:46;;;;;;;15.10;9.87;;;1.20;99.90;;;;;;2236945;26;20275;-70
2024/04/22 04:17:46;;;;;;;13.00;9.17;;;1.20;99.90;;;;;;2223591;26;20311;-70
2024/04/22 04:18:47;;;;;;;14.83;9.97;;;1.20;99.90;;;;;;2220847;26;20268;-70
2024/04/22 04:19:48;;;;;;;15.93;10.37;;;1.30;99.90;;;;;;2232226;26;20271;-70
2024/04/22 04:20:48;;;;;;;18.47;10.13;;;1.30;99.90;;;;;;2234858;26;20680;-70
2024/04/22 04:21:49;;;;;;;16.97;9.57;;;1.20;99.90;;;;;;2224882;26;20274;-69
2024/04/22 04:22:50;;;;;;;13.90;9.73;;;1.20;99.90;;;;;;2246851;26;20271;-70
2024/04/22 04:23:50;;;;;;;13.40;9.80;;;1.20;99.90;;;;;;2250321;26;20370;-70
2024/04/22 04:24:51;;;;;;;16.87;11.57;;;1.30;99.90;;;;;;2235642;26;20311;-70
2024/04/22 04:25:52;;;;;;;15.83;10.90;;;1.30;99.90;;;;;;2230225;26;20888;-70
2024/04/22 04:26:52;;;;;;;13.27;9.97;;;1.30;99.90;;;;;;2235370;26;20269;-70
2024/04/22 04:27:53;;;;;;;16.20;10.90;;;1.20;99.90;;;;;;2234952;26;20283;-71
2024/04/22 04:28:54;;;;;;;13.47;10.40;;;1.20;99.90;;;;;;2250874;26;20292;-71
2024/04/22 04:29:54;;;;;;;13.60;9.33;;;1.20;99.90;;;;;;2249750;26;20755;-70
2024/04/22 04:30:59;;;;;;;12.90;10.40;;;1.20;99.90;;;;;;2235363;26;20374;-71
2024/04/22 04:32:00;;;;;;;13.27;9.25;;;1.20;99.90;;;;;;2236605;26;20267;-71
2024/04/22 04:33:00;;;;;;;12.50;9.27;;;1.20;99.90;;;;;;2250401;26;20316;-69
2024/04/22 04:34:01;;;;;;;15.13;9.83;;;1.30;99.90;;;;;;2235348;26;20237;-69
2024/04/22 04:35:02;;;;;;;11.10;8.87;;;1.30;99.90;;;;;;2249149;26;20226;-69
2024/04/22 04:36:06;;;;;;;11.23;9.07;;;1.30;99.90;;;;;;2251383;26;20783;-69
2024/04/22 04:37:07;;;;;;;14.25;9.63;;;1.40;99.90;;;;;;2235491;26;20620;-70
2024/04/22 04:38:07;;;;;;;12.97;9.13;;;1.40;99.90;;;;;;2235333;26;20229;-70
2024/04/22 04:39:09;;;;;;;22.87;11.30;;;1.50;99.90;;;;;;2251403;26;20236;-69
2024/04/22 04:40:10;;;;;;;17.50;10.90;;;1.50;99.90;;;;;;2250751;26;20332;-70
2024/04/22 04:41:11;;;;;;;13.00;9.48;;;1.50;99.90;;;;;;2235622;26;20278;-69
2024/04/22 04:42:11;;;;;;;12.53;8.87;;;1.60;99.90;;;;;;2235108;26;20268;-70
2024/04/22 04:43:12;;;;;;;11.53;8.70;;;1.60;99.90;;;;;;2252017;26;20327;-69
2024/04/22 04:44:13;;;;;;;13.83;10.13;;;1.70;99.90;;;;;;2249693;26;20253;-69
2024/04/22 04:45:13;;;;;;;17.27;10.93;;;1.70;99.90;;;;;;2235407;26;20737;-70
2024/04/22 04:46:14;;;;;;;18.40;10.30;;;1.60;99.90;;;;;;2219248;26;20241;-69
2024/04/22 04:47:15;;;;;;;11.77;9.50;;;1.60;99.90;;;;;;2200692;26;20310;-69
2024/04/22 04:48:16;;;;;;;13.23;9.50;;;1.60;99.90;;;;;;2201131;26;20691;-69
2024/04/22 04:49:17;;;;;;;13.77;9.52;;;1.50;99.90;;;;;;2218834;26;20234;-69
2024/04/22 04:50:17;;;;;;;14.30;10.40;;;1.50;99.90;;;;;;2235875;26;20237;-69
2024/04/22 04:51:18;;;;;;;15.30;10.13;;;1.40;99.90;;;;;;2220112;26;20299;-69
2024/04/22 04:52:19;;;;;;;13.83;9.27;;;1.40;99.90;;;;;;2235162;26;20281;-69
2024/04/22 04:53:21;;;;;;;13.90;9.97;;;1.30;99.90;;;;;;2249760;26;20279;-70
2024/04/22 04:54:22;;;;;;;12.02;8.35;;;1.20;99.90;;;;;;2250064;26;20415;-70
2024/04/22 04:55:22;;;;;;;15.70;10.63;;;1.20;99.90;;;;;;2250158;26;20727;-69
2024/04/22 04:56:23;;;;;;;12.37;8.43;;;1.20;99.90;;;;;;2237100;26;20313;-69
2024/04/22 04:57:24;;;;;;;11.43;9.57;;;1.20;99.90;;;;;;2240744;26;20264;-70
2024/04/22 04:58:25;;;;;;;12.25;9.05;;;1.20;99.90;;;;;;2234161;26;20327;-69
2024/04/22 04:59:26;;;;;;;14.03;9.10;;;1.20;99.90;;;;;;2248384;26;20930;-69
2024/04/22 05:00:26;;;;;;;11.93;9.23;;;1.10;99.90;;;;;;2250531;26;20677;-70
2024/04/22 05:01:27;;;;;;;13.77;9.67;;;1.10;99.90;;;;;;2234680;26;20269;-69
2024/04/22 05:02:28;;;;;;;11.80;9.20;;;1.20;99.90;;;;;;2234966;26;20266;-69
2024/04/22 05:03:28;;;;;;;10.67;8.43;;;1.20;99.90;;;;;;2235191;26;20348;-69
2024/04/22 05:04:29;;;;;;;15.10;9.70;;;1.20;99.90;;;;;;2235586;26;20628;-70
2024/04/22 05:05:30;;;;;;;13.03;9.63;;;1.10;99.90;;;;;;2234704;26;20266;-69
2024/04/22 05:06:30;;;;;;;12.60;9.47;;;1.10;99.90;;;;;;2235886;26;20324;-70
2024/04/22 05:07:31;;;;;;;13.47;8.33;;;1.10;99.90;;;;;;2249166;26;20753;-70
2024/04/22 05:08:32;;;;;;;10.10;7.90;;;1.20;99.90;;;;;;2250224;26;20300;-69
2024/04/22 05:09:33;;;;;;;10.40;7.53;;;1.30;99.90;;;;;;2234988;26;20265;-69
2024/04/22 05:10:34;;;;;;;9.70;7.10;;;1.30;99.90;;;;;;2249859;26;20455;-69
2024/04/22 05:11:35;;;;;;;8.77;7.27;;;1.20;99.90;;;;;;2234935;26;20408;-70
2024/04/22 05:12:35;;;;;;;15.30;9.87;;;1.20;99.90;;;;;;2234699;26;20379;-69
2024/04/22 05:13:36;;;;;;;19.10;12.47;;;1.20;99.90;;;;;;2235309;26;20279;-69
2024/04/22 05:14:37;;;;;;;11.03;7.97;;;1.30;99.90;;;;;;2233389;26;20700;-70
2024/04/22 05:15:37;;;;;;;10.33;8.00;;;1.30;99.90;;;;;;2233907;26;20315;-69
2024/04/22 05:16:38;;;;;;;8.90;7.33;;;1.30;99.90;;;;;;2235483;26;20328;-69
2024/04/22 05:17:39;;;;;;;12.07;8.30;;;1.30;99.90;;;;;;2249541;26;20609;-70
2024/04/22 05:18:40;;;;;;;9.37;7.70;;;1.30;99.90;;;;;;2250363;26;20268;-69
2024/04/22 05:19:40;;;;;;;10.83;7.93;;;1.30;99.90;;;;;;2234435;26;20321;-69
2024/04/22 05:20:41;;;;;;;13.50;7.73;;;1.20;99.90;;;;;;2234501;26;20309;-70
2024/04/22 05:21:44;;;;;;;8.53;6.63;;;1.10;99.90;;;;;;2250702;26;20264;-69
2024/04/22 05:22:44;;;;;;;10.10;7.55;;;1.00;99.90;;;;;;2249712;26;20307;-69